createdAt,value
2022-11-02T00:01:27.669Z,97525.31
2022-11-02T00:03:57.492Z,97527.72
2022-11-02T00:06:25.582Z,97528.03
2022-11-02T00:08:53.754Z,97524.09
2022-11-02T00:11:21.760Z,97534.31
2022-11-02T00:13:50.192Z,97516.94
2022-11-02T00:16:20.419Z,97519.09
2022-11-02T00:18:52.512Z,97519.97
2022-11-02T00:21:26.985Z,97531.41
2022-11-02T00:23:57.253Z,97540.13
2022-11-02T00:26:26.105Z,97536.16
2022-11-02T00:28:54.525Z,97533.41
2022-11-02T00:31:22.607Z,97538.31
2022-11-02T00:33:51.229Z,97540.56
2022-11-02T00:36:19.222Z,97532.59
2022-11-02T00:38:49.080Z,97533.53
2022-11-02T00:41:19.531Z,97540.75
2022-11-02T00:43:47.890Z,97528.69
2022-11-02T00:46:16.031Z,97532.81
2022-11-02T00:48:44.058Z,97539.19
2022-11-02T00:51:13.103Z,97544.69
2022-11-02T00:53:43.467Z,97542.97
2022-11-02T00:56:13.361Z,97546.94
2022-11-02T00:58:43.672Z,97545.06
2022-11-02T01:01:13.088Z,97545.69
2022-11-02T01:03:41.282Z,97543.41
2022-11-02T01:06:12.368Z,97543.00
2022-11-02T01:08:40.717Z,97544.69
2022-11-02T01:11:17.923Z,97554.59
2022-11-02T01:13:47.055Z,97550.06
2022-11-02T01:16:16.281Z,97550.06
2022-11-02T01:18:44.779Z,97558.88
2022-11-02T01:21:13.906Z,97554.94
2022-11-02T01:23:42.007Z,97554.44
2022-11-02T01:26:12.306Z,97557.63
2022-11-02T01:28:43.504Z,97558.66
2022-11-02T01:31:12.703Z,97553.28
2022-11-02T01:33:45.249Z,97549.47
2022-11-02T01:36:15.964Z,97549.09
2022-11-02T01:38:44.140Z,97547.66
2022-11-02T01:41:13.690Z,97538.94
2022-11-02T01:43:45.086Z,97542.81
2022-11-02T01:46:19.957Z,97539.88
2022-11-02T01:48:51.455Z,97542.31
2022-11-02T01:51:24.003Z,97539.03
2022-11-02T01:53:53.729Z,97546.50
2022-11-02T01:56:25.080Z,97530.94
2022-11-02T01:58:57.916Z,97536.94
2022-11-02T02:01:27.094Z,97533.44
2022-11-02T02:03:57.350Z,97541.72
2022-11-02T02:06:26.984Z,97534.63
2022-11-02T02:09:00.174Z,97540.78
2022-11-02T02:11:32.766Z,97540.56
2022-11-02T02:14:07.544Z,97537.84
2022-11-02T02:17:15.473Z,97538.94
2022-11-02T02:19:51.591Z,97537.25
2022-11-02T02:22:57.539Z,97531.69
2022-11-02T02:25:51.834Z,97533.47
2022-11-02T02:28:30.522Z,97540.16
2022-11-02T02:31:03.677Z,97540.38
2022-11-02T02:33:34.693Z,97542.84
2022-11-02T02:36:10.561Z,97538.75
2022-11-02T02:38:46.660Z,97539.00
2022-11-02T02:41:20.531Z,97542.94
2022-11-02T02:43:53.201Z,97542.34
2022-11-02T02:46:25.175Z,97540.19
2022-11-02T02:48:57.840Z,97538.94
2022-11-02T02:51:29.689Z,97531.78
2022-11-02T02:54:02.010Z,97533.75
2022-11-02T02:56:33.122Z,97537.50
2022-11-02T02:59:06.246Z,97532.03
2022-11-02T03:01:35.158Z,97533.16
2022-11-02T03:04:03.755Z,97529.31
2022-11-02T03:06:33.981Z,97525.16
2022-11-02T03:09:13.755Z,97531.09
2022-11-02T03:12:04.052Z,97534.41
2022-11-02T03:14:49.889Z,97541.25
2022-11-02T03:17:27.108Z,97535.47
2022-11-02T03:20:02.850Z,97545.28
2022-11-02T03:22:35.376Z,97542.84
2022-11-02T03:25:15.047Z,97547.38
2022-11-02T03:27:52.167Z,97544.09
2022-11-02T03:30:24.201Z,97550.41
2022-11-02T03:33:01.300Z,97550.19
2022-11-02T03:35:36.747Z,97544.44
2022-11-02T03:38:12.192Z,97557.59
2022-11-02T03:40:45.130Z,97547.31
2022-11-02T03:43:16.028Z,97561.13
2022-11-02T03:45:50.627Z,97556.19
2022-11-02T03:48:20.538Z,97563.22
2022-11-02T03:50:51.942Z,97547.38
2022-11-02T03:53:28.153Z,97556.06
2022-11-02T03:56:08.057Z,97549.38
2022-11-02T03:58:38.280Z,97562.25
2022-11-02T04:01:09.294Z,97552.19
2022-11-02T04:03:43.913Z,97551.63
2022-11-02T04:06:12.923Z,97552.47
2022-11-02T04:08:43.889Z,97552.13
2022-11-02T04:11:30.850Z,97551.84
2022-11-02T04:14:21.828Z,97558.00
2022-11-02T04:17:12.636Z,97554.66
2022-11-02T04:19:47.021Z,97557.22
2022-11-02T04:22:35.528Z,97555.34
2022-11-02T04:25:18.760Z,97554.63
2022-11-02T04:28:16.544Z,97556.84
2022-11-02T04:31:04.969Z,97557.53
2022-11-02T04:33:39.051Z,97568.34
2022-11-02T04:36:10.572Z,97555.88
2022-11-02T04:38:42.760Z,97558.63
2022-11-02T04:41:43.195Z,97559.16
2022-11-02T04:44:34.155Z,97549.22
2022-11-02T04:47:10.318Z,97554.59
2022-11-02T04:49:39.805Z,97546.16
2022-11-02T04:52:11.802Z,97548.28
2022-11-02T04:54:45.957Z,97549.34
2022-11-02T04:57:13.980Z,97545.22
2022-11-02T04:59:42.054Z,97540.19
2022-11-02T05:02:10.225Z,97547.06
2022-11-02T05:04:40.518Z,97544.50
2022-11-02T05:07:09.771Z,97542.19
2022-11-02T05:09:38.146Z,97540.41
2022-11-02T05:12:07.064Z,97546.84
2022-11-02T05:14:35.694Z,97541.56
2022-11-02T05:17:04.292Z,97540.81
2022-11-02T05:19:33.598Z,97554.47
2022-11-02T05:22:04.710Z,97550.59
2022-11-02T05:24:33.209Z,97554.38
2022-11-02T05:27:02.204Z,97548.16
2022-11-02T05:29:33.108Z,97550.72
2022-11-02T05:32:01.379Z,97539.56
2022-11-02T05:34:29.532Z,97541.34
2022-11-02T05:36:57.816Z,97546.06
2022-11-02T05:39:27.636Z,97549.41
2022-11-02T05:41:55.631Z,97551.41
2022-11-02T05:44:23.775Z,97542.66
2022-11-02T05:46:52.088Z,97544.34
2022-11-02T05:49:20.072Z,97545.03
2022-11-02T05:51:49.178Z,97543.97
2022-11-02T05:54:17.220Z,97550.31
2022-11-02T05:56:46.741Z,97555.19
2022-11-02T05:59:14.898Z,97552.63
2022-11-02T06:01:42.959Z,97561.22
2022-11-02T06:04:11.224Z,97553.22
2022-11-02T06:06:39.717Z,97556.50
2022-11-02T06:09:08.091Z,97550.72
2022-11-02T06:11:36.242Z,97549.69
2022-11-02T06:14:05.844Z,97547.09
2022-11-02T06:16:33.880Z,97551.16
2022-11-02T06:19:01.841Z,97554.72
2022-11-02T06:21:30.110Z,97557.66
2022-11-02T06:23:59.016Z,97556.38
2022-11-02T06:26:27.044Z,97564.19
2022-11-02T06:28:54.948Z,97565.78
2022-11-02T06:31:24.304Z,97567.13
2022-11-02T06:33:52.316Z,97564.13
2022-11-02T06:36:20.252Z,97573.25
2022-11-02T06:38:48.618Z,97583.34
2022-11-02T06:41:16.540Z,97578.22
2022-11-02T06:43:44.522Z,97585.00
2022-11-02T06:46:12.730Z,97591.78
2022-11-02T06:48:42.101Z,97590.13
2022-11-02T06:51:10.089Z,97590.44
2022-11-02T06:53:37.994Z,97594.41
2022-11-02T06:56:06.633Z,97591.19
2022-11-02T06:58:35.136Z,97591.38
2022-11-02T07:01:08.248Z,97587.66
2022-11-02T07:03:37.155Z,97581.94
2022-11-02T07:06:12.913Z,97584.69
2022-11-02T07:08:42.790Z,97584.38
2022-11-02T07:11:14.532Z,97588.34
2022-11-02T07:13:42.955Z,97597.28
2022-11-02T07:16:10.921Z,97588.72
2022-11-02T07:18:38.958Z,97587.63
2022-11-02T07:21:11.527Z,97591.63
2022-11-02T07:23:39.656Z,97597.59
2022-11-02T07:26:07.718Z,97614.53
2022-11-02T07:28:36.903Z,97602.84
2022-11-02T07:31:05.490Z,97596.50
2022-11-02T07:33:33.646Z,97580.66
2022-11-02T07:36:05.432Z,97600.53
2022-11-02T07:38:35.225Z,97582.47
2022-11-02T07:41:03.334Z,97602.34
2022-11-02T07:43:31.346Z,97594.47
2022-11-02T07:46:16.567Z,97595.53
2022-11-02T07:48:44.684Z,97595.75
2022-11-02T07:51:12.749Z,97601.50
2022-11-02T07:53:42.105Z,97603.84
2022-11-02T07:56:10.076Z,97597.97
2022-11-02T07:58:38.420Z,97606.09
2022-11-02T08:01:06.662Z,97594.84
2022-11-02T08:03:35.182Z,97598.28
2022-11-02T08:06:04.020Z,97607.56
2022-11-02T08:08:32.202Z,97608.97
2022-11-02T08:11:07.866Z,97611.44
2022-11-02T08:13:38.374Z,97605.31
2022-11-02T08:16:06.794Z,97602.56
2022-11-02T08:18:34.814Z,97597.31
2022-11-02T08:21:03.200Z,97591.00
2022-11-02T08:23:31.139Z,97589.31
2022-11-02T08:26:00.452Z,97588.13
2022-11-02T08:28:32.386Z,97583.78
2022-11-02T08:31:00.577Z,97581.63
2022-11-02T08:33:28.566Z,97576.25
2022-11-02T08:36:02.862Z,97578.16
2022-11-02T08:38:31.376Z,97577.28
2022-11-02T08:40:59.406Z,97576.28
2022-11-02T08:43:27.538Z,97572.09
2022-11-02T08:46:15.702Z,97571.66
2022-11-02T08:48:44.960Z,97582.16
2022-11-02T08:51:12.988Z,97574.47
2022-11-02T08:53:43.008Z,97569.97
2022-11-02T08:56:14.160Z,97575.66
2022-11-02T08:58:42.173Z,97582.53
2022-11-02T09:01:11.695Z,97578.81
2022-11-02T09:03:39.740Z,97587.72
2022-11-02T09:06:07.997Z,97585.63
2022-11-02T09:08:36.128Z,97581.06
2022-11-02T09:11:05.167Z,97583.00
2022-11-02T09:13:33.256Z,97584.28
2022-11-02T09:16:02.717Z,97586.69
2022-11-02T09:18:32.842Z,97574.50
2022-11-02T09:21:03.077Z,97584.22
2022-11-02T09:23:31.446Z,97588.94
2022-11-02T09:26:00.104Z,97591.06
2022-11-02T09:28:28.581Z,97590.72
2022-11-02T09:30:56.500Z,97593.72
2022-11-02T09:33:24.741Z,97595.56
2022-11-02T09:35:54.178Z,97591.84
2022-11-02T09:38:22.240Z,97595.78
2022-11-02T09:41:02.333Z,97588.78
2022-11-02T09:43:42.716Z,97590.25
2022-11-02T09:46:14.472Z,97595.69
2022-11-02T09:48:46.561Z,97590.25
2022-11-02T09:51:19.112Z,97596.97
2022-11-02T09:53:56.783Z,97600.00
2022-11-02T09:56:25.383Z,97607.00
2022-11-02T09:58:59.416Z,97606.28
2022-11-02T10:01:39.077Z,97607.91
2022-11-02T10:04:34.126Z,97608.75
2022-11-02T10:07:10.992Z,97614.34
2022-11-02T10:09:46.149Z,97613.06
2022-11-02T10:12:16.743Z,97615.13
2022-11-02T10:14:54.148Z,97608.75
2022-11-02T10:17:26.756Z,97599.97
2022-11-02T10:19:57.156Z,97603.09
2022-11-02T10:22:30.383Z,97604.75
2022-11-02T10:25:01.590Z,97591.81
2022-11-02T10:27:33.359Z,97597.16
2022-11-02T10:30:06.041Z,97598.25
2022-11-02T10:32:37.603Z,97607.47
2022-11-02T10:38:15.356Z,97611.16
2022-11-02T10:41:01.119Z,97603.25
2022-11-02T10:43:48.213Z,97615.75
2022-11-02T10:46:31.114Z,97623.00
2022-11-02T10:49:09.803Z,97615.97
2022-11-02T10:51:37.817Z,97616.47
2022-11-02T10:54:13.653Z,97608.34
2022-11-02T10:56:43.217Z,97613.66
2022-11-02T10:59:15.380Z,97621.00
2022-11-02T11:01:48.534Z,97620.69
2022-11-02T11:04:25.762Z,97620.88
2022-11-02T11:06:56.637Z,97618.09
2022-11-02T11:09:29.578Z,97624.69
2022-11-02T11:12:00.673Z,97625.19
2022-11-02T11:20:33.575Z,97621.91
2022-11-02T11:23:19.455Z,97617.97
2022-11-02T11:25:58.271Z,97608.91
2022-11-02T11:28:29.430Z,97613.09
2022-11-02T11:31:10.055Z,97619.94
2022-11-02T11:33:54.407Z,97611.91
2022-11-02T11:39:02.153Z,97607.91
2022-11-02T11:41:34.369Z,97613.84
2022-11-02T11:44:03.702Z,97606.72
2022-11-02T11:46:43.199Z,97610.56
2022-11-02T11:49:31.102Z,97615.34
2022-11-02T11:52:05.382Z,97617.56
2022-11-02T11:54:34.430Z,97615.78
2022-11-02T11:57:28.337Z,97612.31
2022-11-02T11:59:59.768Z,97603.22
2022-11-02T12:02:30.315Z,97600.31
2022-11-02T12:05:01.630Z,97600.72
2022-11-02T12:07:56.001Z,97612.66
2022-11-02T12:10:34.393Z,97601.97
2022-11-02T12:13:20.993Z,97593.69
2022-11-02T12:16:04.299Z,97588.41
2022-11-02T12:18:43.096Z,97596.63
2022-11-02T12:21:23.093Z,97600.47
2022-11-02T12:24:13.582Z,97598.25
2022-11-02T12:26:55.832Z,97602.78
2022-11-02T12:29:43.740Z,97592.09
2022-11-02T12:32:29.522Z,97590.31
2022-11-02T12:35:28.396Z,97587.88
2022-11-02T12:38:14.033Z,97596.72
2022-11-02T12:40:56.012Z,97602.16
2022-11-02T12:43:36.607Z,97593.72
2022-11-02T12:46:18.276Z,97592.72
2022-11-02T12:48:54.875Z,97593.69
2022-11-02T12:51:25.990Z,97585.97
2022-11-02T12:53:58.841Z,97595.06
2022-11-02T12:56:32.131Z,97586.97
2022-11-02T12:59:01.778Z,97580.97
2022-11-02T13:01:36.474Z,97577.88
2022-11-02T13:04:14.871Z,97578.16
2022-11-02T13:06:47.965Z,97574.44
2022-11-02T13:09:24.186Z,97577.19
2022-11-02T13:11:57.933Z,97584.50
2022-11-02T13:14:31.421Z,97584.72
2022-11-02T13:17:07.143Z,97576.84
2022-11-02T13:19:39.202Z,97580.44
2022-11-02T13:22:11.513Z,97578.97
2022-11-02T13:24:44.547Z,97582.06
2022-11-02T13:27:36.990Z,97577.28
2022-11-02T13:30:15.281Z,97583.66
2022-11-02T13:32:48.259Z,97586.06
2022-11-02T13:35:21.739Z,97596.31
2022-11-02T13:37:55.338Z,97598.72
2022-11-02T13:40:26.975Z,97590.44
2022-11-02T13:43:31.357Z,97596.94
2022-11-02T13:46:09.694Z,97604.72
2022-11-02T13:48:50.175Z,97596.97
2022-11-02T13:51:26.864Z,97594.22
2022-11-02T13:54:00.162Z,97594.38
2022-11-02T13:56:30.413Z,97604.25
2022-11-02T13:59:02.746Z,97602.56
2022-11-02T14:01:33.994Z,97604.44
2022-11-02T14:04:07.750Z,97602.16
2022-11-02T14:06:48.503Z,97606.34
2022-11-02T14:09:25.617Z,97609.41
2022-11-02T14:12:13.176Z,97604.03
2022-11-02T14:14:41.640Z,97609.75
2022-11-02T14:17:14.367Z,97600.75
2022-11-02T14:20:32.934Z,97603.38
2022-11-02T14:23:37.845Z,97618.44
2022-11-02T14:26:06.608Z,97607.78
2022-11-02T14:28:43.656Z,97600.19
2022-11-02T14:31:38.044Z,97603.38
2022-11-02T14:34:35.063Z,97601.97
2022-11-02T14:37:47.790Z,97593.56
2022-11-02T14:40:30.291Z,97604.53
2022-11-02T14:43:14.326Z,97604.28
2022-11-02T14:45:58.713Z,97613.84
2022-11-02T14:48:31.692Z,97616.13
2022-11-02T14:51:04.834Z,97607.44
2022-11-02T14:53:36.303Z,97604.09
2022-11-02T14:56:06.482Z,97612.66
2022-11-02T14:58:38.945Z,97613.28
2022-11-02T15:01:14.331Z,97621.78
2022-11-02T15:03:43.637Z,97614.69
2022-11-02T15:06:19.820Z,97614.06
2022-11-02T15:08:54.348Z,97606.19
2022-11-02T15:11:46.015Z,97598.91
2022-11-02T15:14:33.855Z,97597.09
2022-11-02T15:17:02.288Z,97611.44
2022-11-02T15:19:43.904Z,97609.09
2022-11-02T15:22:36.109Z,97600.78
2022-11-02T15:25:10.751Z,97611.66
2022-11-02T15:27:43.154Z,97609.81
2022-11-02T15:30:15.717Z,97606.91
2022-11-02T15:32:48.568Z,97606.66
2022-11-02T15:35:20.453Z,97618.63
2022-11-02T15:38:11.352Z,97608.88
2022-11-02T15:40:49.495Z,97608.25
2022-11-02T15:43:48.167Z,97619.75
2022-11-02T15:46:30.869Z,97622.75
2022-11-02T15:49:08.784Z,97616.09
2022-11-02T15:51:47.741Z,97629.19
2022-11-02T15:54:30.814Z,97627.44
2022-11-02T15:57:12.778Z,97629.84
2022-11-02T16:00:13.256Z,97635.97
2022-11-02T16:02:44.729Z,97633.88
2022-11-02T16:05:25.100Z,97642.97
2022-11-02T16:08:11.403Z,97648.13
2022-11-02T16:10:40.052Z,97666.66
2022-11-02T16:13:17.825Z,97662.88
2022-11-02T16:15:48.939Z,97666.28
2022-11-02T16:18:29.164Z,97663.97
2022-11-02T16:21:01.929Z,97666.75
2022-11-02T16:23:50.905Z,97669.38
2022-11-02T16:26:23.198Z,97669.19
2022-11-02T16:28:53.389Z,97675.88
2022-11-02T16:31:25.122Z,97679.69
2022-11-02T16:33:55.228Z,97679.72
2022-11-02T16:36:25.384Z,97678.44
2022-11-02T16:38:59.975Z,97684.50
2022-11-02T16:41:29.601Z,97694.56
2022-11-02T16:43:59.728Z,97697.16
2022-11-02T16:46:41.789Z,97698.28
2022-11-02T16:49:19.594Z,97693.94
2022-11-02T16:51:53.377Z,97699.91
2022-11-02T16:54:31.512Z,97702.19
2022-11-02T16:57:10.200Z,97702.97
2022-11-02T16:59:49.748Z,97704.94
2022-11-02T17:02:21.011Z,97715.81
2022-11-02T17:07:28.702Z,97718.28
2022-11-02T17:09:59.509Z,97721.03
2022-11-02T17:12:33.760Z,97717.41
2022-11-02T17:15:04.606Z,97720.00
2022-11-02T17:17:38.205Z,97717.81
2022-11-02T17:20:19.180Z,97714.03
2022-11-02T17:22:53.256Z,97715.84
2022-11-02T17:25:23.564Z,97720.34
2022-11-02T17:27:52.643Z,97730.03
2022-11-02T17:30:46.009Z,97731.91
2022-11-02T17:33:25.083Z,97735.31
2022-11-02T17:35:55.174Z,97736.94
2022-11-02T17:38:27.130Z,97726.81
2022-11-02T17:40:56.004Z,97732.88
2022-11-02T17:43:23.895Z,97739.75
2022-11-02T17:45:56.512Z,97743.75
2022-11-02T17:48:28.534Z,97741.09
2022-11-02T17:51:00.718Z,97740.47
2022-11-02T17:53:28.962Z,97746.38
2022-11-02T17:55:57.506Z,97749.19
2022-11-02T17:58:25.637Z,97741.81
2022-11-02T18:00:54.699Z,97743.59
2022-11-02T18:03:29.999Z,97741.97
2022-11-02T18:06:00.723Z,97733.72
2022-11-02T18:08:29.307Z,97731.09
2022-11-02T18:10:57.822Z,97732.94
2022-11-02T18:13:25.931Z,97730.38
2022-11-02T18:15:54.029Z,97726.13
2022-11-02T18:18:22.040Z,97727.28
2022-11-02T18:20:51.642Z,97726.91
2022-11-02T18:23:20.438Z,97733.72
2022-11-02T18:25:48.851Z,97728.03
2022-11-02T18:28:17.317Z,97729.94
2022-11-02T18:30:45.572Z,97730.59
2022-11-02T18:33:14.357Z,97728.41
2022-11-02T18:35:44.214Z,97733.38
2022-11-02T18:38:13.825Z,97738.28
2022-11-02T18:40:42.039Z,97733.34
2022-11-02T18:43:10.224Z,97742.88
2022-11-02T18:45:38.668Z,97736.66
2022-11-02T18:48:07.653Z,97739.72
2022-11-02T18:50:35.935Z,97733.44
2022-11-02T18:53:04.232Z,97737.59
2022-11-02T18:55:33.633Z,97736.13
2022-11-02T18:58:01.734Z,97743.25
2022-11-02T19:00:29.899Z,97736.50
2022-11-02T19:02:58.281Z,97737.97
2022-11-02T19:05:47.517Z,97732.16
2022-11-02T19:08:33.352Z,97734.91
2022-11-02T19:11:03.118Z,97737.59
2022-11-02T19:13:31.236Z,97736.72
2022-11-02T19:16:00.199Z,97748.81
2022-11-02T19:18:28.798Z,97738.47
2022-11-02T19:20:56.921Z,97742.50
2022-11-02T19:23:27.989Z,97742.47
2022-11-02T19:25:56.288Z,97738.75
2022-11-02T19:28:25.803Z,97743.94
2022-11-02T19:30:53.951Z,97726.75
2022-11-02T19:33:22.035Z,97742.25
2022-11-02T19:35:56.124Z,97734.41
2022-11-02T19:38:24.551Z,97733.50
2022-11-02T19:41:01.342Z,97739.16
2022-11-02T19:43:30.928Z,97731.97
2022-11-02T19:46:02.637Z,97730.03
2022-11-02T19:48:31.467Z,97732.28
2022-11-02T19:51:07.269Z,97739.44
2022-11-02T19:53:35.920Z,97735.28
2022-11-02T19:56:05.281Z,97745.22
2022-11-02T19:58:34.890Z,97751.28
2022-11-02T20:01:07.130Z,97745.88
2022-11-02T20:03:35.780Z,97748.44
2022-11-02T20:06:06.865Z,97745.53
2022-11-02T20:08:35.090Z,97753.06
2022-11-02T20:11:04.744Z,97743.50
2022-11-02T20:13:35.506Z,97745.38
2022-11-02T20:16:04.206Z,97739.97
2022-11-02T20:18:32.768Z,97735.50
2022-11-02T20:21:05.559Z,97753.09
2022-11-02T20:23:34.693Z,97756.16
2022-11-02T20:26:04.290Z,97762.75
2022-11-02T20:28:37.926Z,97764.25
2022-11-02T20:31:09.572Z,97768.63
2022-11-02T20:33:38.803Z,97763.34
2022-11-02T20:36:07.953Z,97760.03
2022-11-02T20:38:36.945Z,97762.94
2022-11-02T20:41:07.101Z,97759.41
2022-11-02T20:43:36.984Z,97762.75
2022-11-02T20:46:31.604Z,97755.06
2022-11-02T20:48:59.315Z,97762.88
2022-11-02T20:51:32.807Z,97765.44
2022-11-02T20:54:03.255Z,97757.72
2022-11-02T20:56:31.510Z,97770.63
2022-11-02T20:59:00.862Z,97761.22
2022-11-02T21:01:29.021Z,97765.03
2022-11-02T21:03:57.143Z,97766.03
2022-11-02T21:06:25.200Z,97768.75
2022-11-02T21:08:53.180Z,97773.78
2022-11-02T21:11:39.289Z,97772.91
2022-11-02T21:14:08.928Z,97777.91
2022-11-02T21:16:36.977Z,97775.13
2022-11-02T21:19:05.264Z,97780.31
2022-11-02T21:21:33.308Z,97786.97
2022-11-02T21:24:01.444Z,97782.53
2022-11-02T21:26:29.749Z,97780.28
2022-11-02T21:28:57.732Z,97797.13
2022-11-02T21:31:27.070Z,97786.03
2022-11-02T21:33:55.251Z,97781.59
2022-11-02T21:36:23.162Z,97788.34
2022-11-02T21:38:51.128Z,97784.81
2022-11-02T21:41:21.361Z,97790.16
2022-11-02T21:43:51.938Z,97790.91
2022-11-02T21:46:20.266Z,97789.81
2022-11-02T21:48:49.696Z,97791.47
2022-11-02T21:51:19.909Z,97791.38
2022-11-02T21:53:49.256Z,97787.78
2022-11-02T21:56:19.239Z,97780.88
2022-11-02T21:58:47.857Z,97784.50
2022-11-02T22:01:35.521Z,97785.19
2022-11-02T22:04:05.403Z,97788.50
2022-11-02T22:06:33.439Z,97786.78
2022-11-02T22:09:02.369Z,97790.28
2022-11-02T22:11:30.279Z,97792.25
2022-11-02T22:13:59.766Z,97793.84
2022-11-02T22:16:29.395Z,97798.38
2022-11-02T22:18:59.276Z,97789.97
2022-11-02T22:21:30.940Z,97793.50
2022-11-02T22:23:59.201Z,97796.19
2022-11-02T22:26:29.236Z,97794.44
2022-11-02T22:28:58.291Z,97794.34
2022-11-02T22:31:28.225Z,97791.81
2022-11-02T22:33:58.127Z,97790.81
2022-11-02T22:36:29.755Z,97791.53
2022-11-02T22:38:59.105Z,97792.50
2022-11-02T22:41:29.403Z,97795.25
2022-11-02T22:43:59.433Z,97793.56
2022-11-02T22:46:28.596Z,97791.97
2022-11-02T22:48:58.109Z,97791.22
2022-11-02T22:51:28.036Z,97784.25
2022-11-02T22:54:01.755Z,97792.06
2022-11-02T22:56:30.036Z,97788.13
2022-11-02T22:58:59.452Z,97787.09
2022-11-02T23:01:28.963Z,97785.44
2022-11-02T23:03:57.815Z,97797.47
2022-11-02T23:06:26.915Z,97780.13
2022-11-02T23:08:59.089Z,97786.03
2022-11-02T23:11:28.248Z,97783.53
2022-11-02T23:13:58.237Z,97783.91
2022-11-02T23:16:28.329Z,97782.09
2022-11-02T23:19:20.319Z,97780.38
2022-11-02T23:22:10.437Z,97779.75
2022-11-02T23:24:58.771Z,97790.44
2022-11-02T23:27:27.625Z,97786.00
2022-11-02T23:30:13.193Z,97781.84
2022-11-02T23:32:41.235Z,97784.28
2022-11-02T23:35:35.470Z,97767.75
2022-11-02T23:38:07.641Z,97772.09
2022-11-02T23:40:37.265Z,97772.91
2022-11-02T23:43:07.958Z,97767.41
2022-11-02T23:45:36.797Z,97772.91
2022-11-02T23:48:07.280Z,97777.22
2022-11-02T23:50:53.525Z,97772.97
2022-11-02T23:53:41.453Z,97773.84
2022-11-02T23:56:33.033Z,97770.63
2022-11-02T23:59:07.344Z,97775.75
